Time;durP1;ratioP1;P1;durP2;ratioP2;P2;SDS_P1;SDS_P2;PMS_P1;PMS_P2;Temp;Humidity;BMP_temperature;BMP_pressure;BME280_temperature;BME280_humidity;BME280_pressure;Samples;Min_cycle;Max_cycle;Signal;HPM_P1;HPM_P2
2021/11/02 00:00:31;;;;;;;32.78;29.23;;;;;;;;;;4998782;28;24918;-56
2021/11/02 00:02:57;;;;;;;29.95;25.20;;;;;;;;;;4994781;28;24471;-56
2021/11/02 00:05:22;;;;;;;28.23;25.13;;;;;;;;;;4992889;28;24451;-56
2021/11/02 00:07:47;;;;;;;27.70;24.67;;;;;;;;;;5000607;28;24401;-56
2021/11/02 00:10:13;;;;;;;27.13;23.30;;;;;;;;;;5000347;28;24407;-56
2021/11/02 00:12:39;;;;;;;26.05;23.25;;;;;;;;;;4998179;28;24411;-56
2021/11/02 00:15:04;;;;;;;33.10;27.37;;;;;;;;;;4998198;28;24432;-56
2021/11/02 00:17:31;;;;;;;28.90;25.47;;;;;;;;;;5000404;28;24397;-56
2021/11/02 00:19:59;;;;;;;27.60;24.80;;;;;;;;;;4994051;28;25384;-57
2021/11/02 00:22:26;;;;;;;26.67;23.75;;;;;;;;;;4981636;28;24551;-56
2021/11/02 00:27:20;;;;;;;24.60;22.00;;;;;;;;;;5004787;28;24412;-56
2021/11/02 00:29:45;;;;;;;22.98;20.58;;;;;;;;;;5016876;28;25044;-56
2021/11/02 00:32:11;;;;;;;20.20;18.10;;;;;;;;;;5017193;28;24404;-57
2021/11/02 00:34:36;;;;;;;19.80;17.70;;;;;;;;;;5018123;28;24400;-56
2021/11/02 00:37:01;;;;;;;19.53;17.43;;;;;;;;;;5007339;28;24416;-56
2021/11/02 00:39:26;;;;;;;17.07;15.27;;;;;;;;;;5001050;28;24766;-56
2021/11/02 00:41:51;;;;;;;17.63;15.82;;;;;;;;;;4997034;28;24419;-56
2021/11/02 00:44:18;;;;;;;15.88;14.27;;;;;;;;;;4994953;28;24470;-57
2021/11/02 00:46:43;;;;;;;16.13;14.43;;;;;;;;;;4994448;28;24400;-56
2021/11/02 00:49:16;;;;;;;14.87;13.40;;;;;;;;;;5000573;28;25266;-56
2021/11/02 00:51:41;;;;;;;13.98;12.55;;;;;;;;;;4998647;28;24514;-56
2021/11/02 00:54:07;;;;;;;13.00;11.70;;;;;;;;;;5000479;28;24479;-56
2021/11/02 00:56:32;;;;;;;13.80;12.30;;;;;;;;;;4998191;28;24417;-56
2021/11/02 00:58:57;;;;;;;14.03;12.60;;;;;;;;;;4995875;28;24938;-56
2021/11/02 01:01:22;;;;;;;11.80;10.60;;;;;;;;;;4999909;28;24453;-56
2021/11/02 01:03:47;;;;;;;12.40;11.20;;;;;;;;;;4998374;28;24420;-56
2021/11/02 01:06:12;;;;;;;12.60;11.38;;;;;;;;;;5001026;28;24954;-56
2021/11/02 01:08:38;;;;;;;12.23;10.93;;;;;;;;;;4996739;28;24479;-56
2021/11/02 01:11:03;;;;;;;12.27;11.07;;;;;;;;;;5003647;28;24412;-56
2021/11/02 01:13:28;;;;;;;11.33;10.23;;;;;;;;;;4999933;28;24455;-56
2021/11/02 01:15:53;;;;;;;11.60;10.50;;;;;;;;;;5000879;28;24412;-57
2021/11/02 01:18:19;;;;;;;11.35;10.15;;;;;;;;;;5003748;28;24411;-56
2021/11/02 01:20:44;;;;;;;11.20;10.00;;;;;;;;;;4997800;28;24424;-57
2021/11/02 01:23:09;;;;;;;11.60;10.40;;;;;;;;;;4939005;28;1735865;-57
2021/11/02 01:25:34;;;;;;;11.10;10.00;;;;;;;;;;5000886;28;24428;-56
2021/11/02 01:27:59;;;;;;;11.83;10.27;;;;;;;;;;5003944;28;24432;-56
2021/11/02 01:30:25;;;;;;;11.30;10.20;;;;;;;;;;5004361;28;24505;-56
2021/11/02 01:32:50;;;;;;;10.57;9.47;;;;;;;;;;5000849;28;24768;-56
2021/11/02 01:35:15;;;;;;;10.97;9.87;;;;;;;;;;4998633;28;24416;-56
2021/11/02 01:37:40;;;;;;;11.00;9.90;;;;;;;;;;5000406;28;25006;-56
2021/11/02 01:40:07;;;;;;;10.90;9.50;;;;;;;;;;5004219;28;24443;-56
2021/11/02 01:42:32;;;;;;;9.95;9.05;;;;;;;;;;5004119;28;24825;-56
2021/11/02 01:44:59;;;;;;;10.90;9.80;;;;;;;;;;5001800;28;24978;-57
2021/11/02 01:47:25;;;;;;;10.80;9.70;;;;;;;;;;5001848;28;24420;-56
2021/11/02 01:49:50;;;;;;;10.70;9.70;;;;;;;;;;4998253;28;24775;-56
2021/11/02 01:52:15;;;;;;;9.90;8.90;;;;;;;;;;4998317;28;24728;-56
2021/11/02 01:54:40;;;;;;;9.80;8.60;;;;;;;;;;5003697;28;24420;-56
2021/11/02 01:57:06;;;;;;;9.27;8.30;;;;;;;;;;5003650;28;24802;-56
2021/11/02 01:59:33;;;;;;;9.23;8.33;;;;;;;;;;5003492;28;24447;-56
2021/11/02 02:02:07;;;;;;;8.45;7.65;;;;;;;;;;4997762;28;24447;-57
2021/11/02 02:04:46;;;;;;;9.10;8.20;;;;;;;;;;4999730;28;24457;-57
2021/11/02 02:07:25;;;;;;;8.93;8.13;;;;;;;;;;5000434;28;24421;-57
2021/11/02 02:09:59;;;;;;;8.85;7.90;;;;;;;;;;5000654;28;24434;-57
2021/11/02 02:12:31;;;;;;;9.20;8.17;;;;;;;;;;5003339;28;24530;-56
2021/11/02 02:15:27;;;;;;;8.93;8.02;;;;;;;;;;4996811;28;24487;-57
2021/11/02 02:18:00;;;;;;;8.20;7.47;;;;;;;;;;4988501;28;24474;-57
2021/11/02 02:20:44;;;;;;;10.23;8.50;;;;;;;;;;4997522;28;24504;-57
2021/11/02 02:23:20;;;;;;;8.43;7.63;;;;;;;;;;4998939;28;24862;-57
2021/11/02 02:26:00;;;;;;;7.25;6.65;;;;;;;;;;5002670;28;25013;-57
2021/11/02 02:28:31;;;;;;;8.10;7.30;;;;;;;;;;5002831;28;24520;-56
2021/11/02 02:30:57;;;;;;;7.38;6.45;;;;;;;;;;4999021;28;24640;-56
2021/11/02 02:33:25;;;;;;;7.32;6.28;;;;;;;;;;4998637;28;24396;-56
2021/11/02 02:35:50;;;;;;;6.50;5.90;;;;;;;;;;5000172;28;24459;-56
2021/11/02 02:38:18;;;;;;;6.20;5.53;;;;;;;;;;4999705;28;24470;-56
2021/11/02 02:40:47;;;;;;;6.03;5.43;;;;;;;;;;5003353;28;24857;-57
2021/11/02 02:43:12;;;;;;;6.70;6.00;;;;;;;;;;5003285;28;24878;-56
2021/11/02 02:45:38;;;;;;;5.97;5.30;;;;;;;;;;5001533;28;24967;-56
2021/11/02 02:48:05;;;;;;;5.25;4.75;;;;;;;;;;4999091;28;24504;-56
2021/11/02 02:50:30;;;;;;;4.18;3.78;;;;;;;;;;4999692;28;24427;-56
2021/11/02 02:52:56;;;;;;;5.10;4.60;;;;;;;;;;4999421;28;24989;-56
2021/11/02 02:55:22;;;;;;;5.13;4.50;;;;;;;;;;5003566;28;24898;-56
2021/11/02 02:57:47;;;;;;;4.20;3.80;;;;;;;;;;5000531;28;24420;-56
2021/11/02 03:00:12;;;;;;;4.67;4.27;;;;;;;;;;4984266;28;24411;-57
2021/11/02 03:02:39;;;;;;;4.40;3.53;;;;;;;;;;4980051;28;24413;-56
2021/11/02 03:05:07;;;;;;;3.53;3.10;;;;;;;;;;4979338;28;24789;-56
2021/11/02 03:07:32;;;;;;;3.50;3.20;;;;;;;;;;4981580;28;24619;-57
2021/11/02 03:09:57;;;;;;;2.90;2.60;;;;;;;;;;4997277;28;25313;-56
2021/11/02 03:12:28;;;;;;;2.60;2.40;;;;;;;;;;5003224;28;24409;-56
2021/11/02 03:17:57;;;;;;;2.67;2.13;;;;;;;;;;4965856;28;24547;-57
2021/11/02 03:56:36;;;;;;;2.60;2.20;;;;;;;;;;4983643;28;24459;-56
2021/11/02 04:01:50;;;;;;;2.00;1.90;;;;;;;;;;4998282;28;24439;-56
2021/11/02 04:24:06;;;;;;;2.30;2.10;;;;;;;;;;4999359;28;24483;-56
2021/11/02 04:32:17;;;;;;;1.98;1.88;;;;;;;;;;4990366;28;24459;-56
2021/11/02 04:57:55;;;;;;;1.98;1.80;;;;;;;;;;5005413;28;24419;-56
2021/11/02 05:08:08;;;;;;;2.10;1.80;;;;;;;;;;5000853;28;24500;-57
2021/11/02 05:10:59;;;;;;;2.15;1.95;;;;;;;;;;4998829;28;24412;-58
2021/11/02 05:13:58;;;;;;;2.60;2.40;;;;;;;;;;4997070;28;24456;-58
2021/11/02 05:20:27;;;;;;;2.70;2.50;;;;;;;;;;4948434;28;24485;-58
2021/11/02 05:52:28;;;;;;;3.00;2.80;;;;;;;;;;4999258;28;25093;-56
2021/11/02 05:55:13;;;;;;;2.40;2.20;;;;;;;;;;4998275;28;25077;-57
2021/11/02 05:57:53;;;;;;;2.90;2.30;;;;;;;;;;4992739;28;24528;-56
2021/11/02 06:00:22;;;;;;;2.20;2.00;;;;;;;;;;4991336;28;24420;-56
2021/11/02 06:03:26;;;;;;;2.50;2.30;;;;;;;;;;4987340;28;24458;-56
2021/11/02 06:05:48;;;;;;;2.33;2.13;;;;;;;;;;4986797;28;24852;-56
2021/11/02 06:08:32;;;;;;;2.60;2.40;;;;;;;;;;4998221;28;24470;-56
2021/11/02 06:11:31;;;;;;;2.40;2.20;;;;;;;;;;4992361;28;24420;-56
2021/11/02 06:28:12;;;;;;;2.80;2.60;;;;;;;;;;4979596;28;24464;-57
2021/11/02 06:30:42;;;;;;;2.60;2.40;;;;;;;;;;4999620;28;24401;-56
2021/11/02 06:39:03;;;;;;;2.80;2.60;;;;;;;;;;5001956;28;24463;-57
2021/11/02 06:44:37;;;;;;;3.67;3.38;;;;;;;;;;5001673;28;24420;-57
2021/11/02 06:55:39;;;;;;;3.75;3.45;;;;;;;;;;5001425;28;25133;-60
2021/11/02 06:58:32;;;;;;;3.40;3.10;;;;;;;;;;4996838;28;24470;-57
2021/11/02 07:22:53;;;;;;;3.60;3.30;;;;;;;;;;5002195;28;24572;-56
2021/11/02 07:25:30;;;;;;;3.70;3.45;;;;;;;;;;4999690;28;24404;-57
2021/11/02 08:45:51;;;;;;;5.90;5.40;;;;;;;;;;4999918;28;24438;-57
2021/11/02 08:48:17;;;;;;;6.30;5.80;;;;;;;;;;4995282;28;24539;-57
2021/11/02 08:50:44;;;;;;;6.13;5.55;;;;;;;;;;4988498;28;24492;-57
2021/11/02 08:53:10;;;;;;;5.23;4.83;;;;;;;;;;4979896;28;24872;-57
2021/11/02 08:55:36;;;;;;;5.90;5.40;;;;;;;;;;4980281;28;24396;-57
2021/11/02 08:58:02;;;;;;;5.47;5.07;;;;;;;;;;4981413;28;24814;-57
2021/11/02 09:00:27;;;;;;;6.20;5.70;;;;;;;;;;4993743;28;24424;-57
2021/11/02 09:02:56;;;;;;;6.32;5.72;;;;;;;;;;4995821;28;24425;-57
2021/11/02 09:05:25;;;;;;;6.15;5.55;;;;;;;;;;4997832;28;24451;-56
2021/11/02 09:07:53;;;;;;;5.75;5.32;;;;;;;;;;4999686;28;25255;-56
2021/11/02 09:10:20;;;;;;;6.35;5.85;;;;;;;;;;5001279;28;24408;-57
2021/11/02 09:12:46;;;;;;;6.72;6.22;;;;;;;;;;4999573;28;24408;-56
2021/11/02 09:15:15;;;;;;;5.78;5.38;;;;;;;;;;4997439;28;24511;-57
2021/11/02 09:17:42;;;;;;;6.25;5.10;;;;;;;;;;4997145;28;24946;-57
2021/11/02 09:20:07;;;;;;;6.47;5.88;;;;;;;;;;4997632;28;24423;-57
2021/11/02 09:22:33;;;;;;;6.07;5.57;;;;;;;;;;4998787;28;24437;-57
2021/11/02 09:24:59;;;;;;;6.20;5.60;;;;;;;;;;5000968;28;24496;-58
2021/11/02 09:27:25;;;;;;;5.50;5.10;;;;;;;;;;5003008;28;24980;-57
2021/11/02 09:29:50;;;;;;;6.25;5.75;;;;;;;;;;5002574;28;24420;-57
2021/11/02 09:32:16;;;;;;;5.63;5.23;;;;;;;;;;5000435;28;24919;-57
2021/11/02 09:34:42;;;;;;;6.50;6.00;;;;;;;;;;5000312;28;25176;-58
2021/11/02 09:37:14;;;;;;;6.10;5.60;;;;;;;;;;5002959;28;24411;-58
2021/11/02 09:39:42;;;;;;;5.90;5.40;;;;;;;;;;5001898;28;24408;-58
2021/11/02 09:42:26;;;;;;;6.10;5.60;;;;;;;;;;5004423;28;24420;-58
2021/11/02 09:45:10;;;;;;;6.83;6.23;;;;;;;;;;5002809;28;24388;-58
2021/11/02 09:47:38;;;;;;;7.10;6.50;;;;;;;;;;5000985;28;24825;-58
2021/11/02 09:50:12;;;;;;;6.30;5.80;;;;;;;;;;4984843;28;24401;-59
2021/11/02 09:52:56;;;;;;;6.57;6.07;;;;;;;;;;4996227;28;25005;-58
2021/11/02 09:55:32;;;;;;;6.20;5.68;;;;;;;;;;5004461;28;24831;-58
2021/11/02 09:58:12;;;;;;;5.93;5.43;;;;;;;;;;5002132;28;24551;-58
2021/11/02 10:00:50;;;;;;;6.80;6.20;;;;;;;;;;5000192;28;24431;-58
2021/11/02 10:03:18;;;;;;;6.53;6.03;;;;;;;;;;4998150;28;24486;-58
2021/11/02 10:05:48;;;;;;;6.70;6.10;;;;;;;;;;5000430;28;24439;-58
2021/11/02 10:08:34;;;;;;;6.78;6.20;;;;;;;;;;5001943;28;25040;-58
2021/11/02 10:11:13;;;;;;;6.88;6.22;;;;;;;;;;5001622;28;24534;-58
2021/11/02 10:13:47;;;;;;;6.47;5.97;;;;;;;;;;5000488;28;24747;-58
2021/11/02 10:16:47;;;;;;;7.22;6.53;;;;;;;;;;4998540;28;24419;-58
2021/11/02 10:19:34;;;;;;;7.50;6.80;;;;;;;;;;5001650;28;24490;-58
2021/11/02 10:22:17;;;;;;;6.32;5.82;;;;;;;;;;5001097;28;24542;-58
2021/11/02 10:25:01;;;;;;;6.30;5.80;;;;;;;;;;5001555;28;24918;-58
2021/11/02 10:27:42;;;;;;;6.22;5.63;;;;;;;;;;5003164;28;24401;-58
2021/11/02 10:30:09;;;;;;;5.80;5.40;;;;;;;;;;5000212;28;24404;-58
2021/11/02 10:32:40;;;;;;;6.90;6.30;;;;;;;;;;4999585;28;24451;-56
2021/11/02 10:35:26;;;;;;;6.20;5.70;;;;;;;;;;5000495;28;24403;-58
2021/11/02 10:37:51;;;;;;;6.03;5.43;;;;;;;;;;5002391;28;24415;-58
2021/11/02 10:40:36;;;;;;;6.35;5.85;;;;;;;;;;5003152;28;24431;-57
2021/11/02 10:43:09;;;;;;;6.40;5.90;;;;;;;;;;5000661;28;25261;-57
2021/11/02 10:45:36;;;;;;;6.68;6.18;;;;;;;;;;4999685;28;24408;-57
2021/11/02 10:48:05;;;;;;;5.80;5.30;;;;;;;;;;4990019;28;24397;-58
2021/11/02 10:50:31;;;;;;;6.50;5.90;;;;;;;;;;4979968;28;24715;-57
2021/11/02 10:52:58;;;;;;;6.00;5.40;;;;;;;;;;4993576;28;24428;-57
2021/11/02 10:55:23;;;;;;;6.53;5.95;;;;;;;;;;5003511;28;24442;-57
2021/11/02 10:57:48;;;;;;;5.40;5.00;;;;;;;;;;5001151;28;24393;-57
2021/11/02 11:00:14;;;;;;;4.57;4.28;;;;;;;;;;4997276;28;24986;-58
2021/11/02 11:02:42;;;;;;;5.28;4.25;;;;;;;;;;4997536;28;24543;-58
2021/11/02 11:05:08;;;;;;;3.95;3.55;;;;;;;;;;5001639;28;24380;-57
2021/11/02 11:07:41;;;;;;;4.88;3.58;;;;;;;;;;5001071;28;24914;-58
2021/11/02 11:10:07;;;;;;;4.80;4.30;;;;;;;;;;5002529;28;24395;-58
2021/11/02 11:12:34;;;;;;;4.07;3.75;;;;;;;;;;5002934;28;24491;-58
2021/11/02 11:15:02;;;;;;;3.25;3.05;;;;;;;;;;4997744;28;24432;-58
2021/11/02 11:17:28;;;;;;;3.10;2.90;;;;;;;;;;4999224;28;24454;-57
2021/11/02 11:19:58;;;;;;;3.50;3.20;;;;;;;;;;4999019;28;25260;-58
2021/11/02 11:22:25;;;;;;;3.30;3.00;;;;;;;;;;5001288;28;24603;-58
2021/11/02 11:25:01;;;;;;;5.18;3.58;;;;;;;;;;5000400;28;24981;-58
2021/11/02 11:27:27;;;;;;;3.28;2.97;;;;;;;;;;5003118;28;24934;-58
2021/11/02 11:29:54;;;;;;;3.08;2.78;;;;;;;;;;4997180;28;24465;-58
2021/11/02 11:32:19;;;;;;;3.15;2.80;;;;;;;;;;4997235;28;24516;-58
2021/11/02 11:34:46;;;;;;;4.37;3.97;;;;;;;;;;4998713;28;25228;-57
2021/11/02 11:37:12;;;;;;;5.00;3.10;;;;;;;;;;5002420;28;25069;-58
2021/11/02 11:39:38;;;;;;;3.03;2.72;;;;;;;;;;5000202;28;24482;-57
2021/11/02 11:42:04;;;;;;;3.28;2.88;;;;;;;;;;4998791;28;24950;-57
2021/11/02 11:44:30;;;;;;;3.10;2.80;;;;;;;;;;4998957;28;24856;-57
2021/11/02 11:47:09;;;;;;;2.80;2.60;;;;;;;;;;4987806;28;24412;-58
2021/11/02 11:49:36;;;;;;;2.78;2.50;;;;;;;;;;4983885;28;24412;-57
2021/11/02 11:52:02;;;;;;;4.68;2.90;;;;;;;;;;5002802;28;24400;-58
2021/11/02 11:54:29;;;;;;;2.83;2.63;;;;;;;;;;5002298;28;24399;-57
2021/11/02 11:57:00;;;;;;;3.65;2.78;;;;;;;;;;4999197;28;24396;-57
2021/11/02 11:59:26;;;;;;;2.30;2.20;;;;;;;;;;4998510;28;24871;-58
2021/11/02 12:02:01;;;;;;;4.75;3.03;;;;;;;;;;4998063;28;24486;-58
2021/11/02 12:04:36;;;;;;;3.50;3.20;;;;;;;;;;4996699;28;24376;-58
2021/11/02 12:07:04;;;;;;;3.60;3.00;;;;;;;;;;5002248;28;24866;-58
2021/11/02 12:09:38;;;;;;;4.10;3.05;;;;;;;;;;5001692;28;24395;-58
2021/11/02 12:12:04;;;;;;;2.60;2.40;;;;;;;;;;4998071;28;24423;-58
2021/11/02 12:14:31;;;;;;;3.72;2.20;;;;;;;;;;4998472;28;25298;-58
2021/11/02 12:17:03;;;;;;;3.40;2.50;;;;;;;;;;4998569;28;24759;-57
2021/11/02 12:19:30;;;;;;;3.20;2.00;;;;;;;;;;4997832;28;24396;-58
2021/11/02 12:22:07;;;;;;;2.30;2.10;;;;;;;;;;5001228;28;24606;-57
2021/11/02 12:24:33;;;;;;;2.22;1.80;;;;;;;;;;5001332;28;24492;-56
2021/11/02 12:27:09;;;;;;;2.50;2.30;;;;;;;;;;4997576;28;24756;-58
2021/11/02 12:29:35;;;;;;;1.83;1.65;;;;;;;;;;4997938;28;25064;-58
2021/11/02 12:32:04;;;;;;;2.00;1.90;;;;;;;;;;4997961;28;24424;-57
2021/11/02 12:34:41;;;;;;;2.55;2.10;;;;;;;;;;4999939;28;24392;-57
2021/11/02 12:37:08;;;;;;;2.60;1.90;;;;;;;;;;5002458;28;24747;-57
2021/11/02 12:39:34;;;;;;;2.67;2.40;;;;;;;;;;5001354;28;24467;-57
2021/11/02 12:42:00;;;;;;;2.97;2.20;;;;;;;;;;4995962;28;24479;-58
2021/11/02 12:44:32;;;;;;;1.93;1.83;;;;;;;;;;4997693;28;24388;-57
2021/11/02 12:46:59;;;;;;;2.30;2.10;;;;;;;;;;4978230;28;24440;-57
2021/11/02 12:49:28;;;;;;;2.50;2.30;;;;;;;;;;4979973;28;24398;-57
2021/11/02 12:51:56;;;;;;;2.10;1.80;;;;;;;;;;4980580;28;24385;-57
2021/11/02 12:54:22;;;;;;;2.20;2.00;;;;;;;;;;5000726;28;24421;-58
2021/11/02 12:57:00;;;;;;;2.40;1.73;;;;;;;;;;4997571;28;24396;-58
2021/11/02 12:59:26;;;;;;;2.08;1.90;;;;;;;;;;4997825;28;24495;-58
2021/11/02 13:01:52;;;;;;;2.78;2.20;;;;;;;;;;4999115;28;24455;-58
2021/11/02 13:04:18;;;;;;;2.30;2.10;;;;;;;;;;4999874;28;24451;-58
2021/11/02 13:06:43;;;;;;;2.43;2.00;;;;;;;;;;5005144;28;24396;-58
2021/11/02 13:09:09;;;;;;;2.30;2.10;;;;;;;;;;5005409;28;24432;-58
2021/11/02 13:11:35;;;;;;;2.00;1.90;;;;;;;;;;5003406;28;24423;-58
2021/11/02 13:14:02;;;;;;;2.10;2.00;;;;;;;;;;4999762;28;24846;-58
2021/11/02 13:16:50;;;;;;;2.30;2.17;;;;;;;;;;5000300;28;24445;-58
2021/11/02 13:19:15;;;;;;;2.60;2.30;;;;;;;;;;5002749;28;24496;-57
2021/11/02 13:21:40;;;;;;;2.57;2.37;;;;;;;;;;4985267;28;24523;-57
2021/11/02 13:24:14;;;;;;;2.50;2.30;;;;;;;;;;5004618;28;24511;-58
2021/11/02 13:26:40;;;;;;;2.28;2.08;;;;;;;;;;5001213;28;24407;-58
2021/11/02 13:29:09;;;;;;;2.40;2.20;;;;;;;;;;4998885;28;24504;-58
2021/11/02 13:31:35;;;;;;;2.40;2.20;;;;;;;;;;5000647;28;24929;-58
2021/11/02 13:34:01;;;;;;;2.78;2.20;;;;;;;;;;5001864;28;24508;-58
2021/11/02 13:36:26;;;;;;;2.70;2.20;;;;;;;;;;5000827;28;24479;-58
2021/11/02 13:39:04;;;;;;;2.17;1.98;;;;;;;;;;5003619;28;24895;-58
2021/11/02 13:41:31;;;;;;;2.42;2.10;;;;;;;;;;5002392;28;24431;-58
2021/11/02 13:44:00;;;;;;;2.70;2.20;;;;;;;;;;4998463;28;24408;-58
2021/11/02 13:46:29;;;;;;;2.00;1.90;;;;;;;;;;4998301;28;24408;-59
2021/11/02 13:48:54;;;;;;;2.25;2.05;;;;;;;;;;4990823;28;24495;-59
2021/11/02 13:51:20;;;;;;;1.83;1.70;;;;;;;;;;5003618;28;24798;-59
2021/11/02 13:53:46;;;;;;;2.67;2.40;;;;;;;;;;5003926;28;25020;-58
2021/11/02 13:56:15;;;;;;;2.93;1.87;;;;;;;;;;4998699;28;24463;-58
2021/11/02 13:58:41;;;;;;;2.33;1.92;;;;;;;;;;4999604;28;24416;-57
2021/11/02 14:01:08;;;;;;;2.20;2.00;;;;;;;;;;5003645;28;24463;-58
2021/11/02 14:03:57;;;;;;;3.20;2.10;;;;;;;;;;5001718;28;24416;-58
2021/11/02 14:06:23;;;;;;;2.45;2.10;;;;;;;;;;4973457;28;24984;-58
2021/11/02 14:08:49;;;;;;;4.80;2.30;;;;;;;;;;4998631;28;24419;-59
2021/11/02 14:11:21;;;;;;;2.20;2.10;;;;;;;;;;5001157;28;24822;-58
2021/11/02 14:13:48;;;;;;;2.40;2.20;;;;;;;;;;5003328;28;24491;-59
2021/11/02 14:16:14;;;;;;;2.40;2.20;;;;;;;;;;5003795;28;24393;-59
2021/11/02 14:18:40;;;;;;;2.40;2.20;;;;;;;;;;4998721;28;24468;-58
2021/11/02 14:21:05;;;;;;;2.05;1.92;;;;;;;;;;4997412;28;24417;-58
2021/11/02 14:23:30;;;;;;;2.63;2.17;;;;;;;;;;4999434;28;24507;-57
2021/11/02 14:26:14;;;;;;;2.60;2.33;;;;;;;;;;5003815;28;24890;-59
2021/11/02 14:28:45;;;;;;;2.90;2.60;;;;;;;;;;5002030;28;24403;-58
2021/11/02 14:31:30;;;;;;;4.15;3.10;;;;;;;;;;4999806;28;24412;-58
2021/11/02 14:33:55;;;;;;;3.00;2.70;;;;;;;;;;4998196;28;24483;-58
2021/11/02 14:36:32;;;;;;;2.80;2.60;;;;;;;;;;4982265;28;24935;-59
2021/11/02 14:38:57;;;;;;;3.00;2.70;;;;;;;;;;5001501;28;24465;-59
2021/11/02 14:41:32;;;;;;;3.80;2.80;;;;;;;;;;5002843;28;24475;-59
2021/11/02 14:44:15;;;;;;;3.20;2.90;;;;;;;;;;4981647;28;25051;-59
2021/11/02 14:46:44;;;;;;;3.40;3.10;;;;;;;;;;4980375;28;24953;-59
2021/11/02 14:49:29;;;;;;;3.50;2.90;;;;;;;;;;4991987;28;24413;-59
2021/11/02 14:52:01;;;;;;;3.05;2.75;;;;;;;;;;5003493;28;24401;-59
2021/11/02 14:54:30;;;;;;;3.05;2.85;;;;;;;;;;5003580;28;24488;-59
2021/11/02 14:57:15;;;;;;;4.25;3.05;;;;;;;;;;4999547;28;24420;-59
2021/11/02 14:59:57;;;;;;;3.60;3.30;;;;;;;;;;4986649;28;24416;-59
2021/11/02 15:02:36;;;;;;;3.13;2.92;;;;;;;;;;4999523;28;24511;-59
2021/11/02 15:05:06;;;;;;;3.35;2.80;;;;;;;;;;5003096;28;24539;-59
2021/11/02 15:07:34;;;;;;;3.85;3.03;;;;;;;;;;5002614;28;24534;-59
2021/11/02 15:10:03;;;;;;;3.25;3.00;;;;;;;;;;5001921;28;24459;-59
2021/11/02 15:12:29;;;;;;;4.07;3.30;;;;;;;;;;5000006;28;24763;-59
2021/11/02 15:14:54;;;;;;;4.03;3.00;;;;;;;;;;4997049;28;24986;-59
2021/11/02 15:17:19;;;;;;;3.70;3.40;;;;;;;;;;5001108;28;24396;-59
2021/11/02 15:19:44;;;;;;;3.70;3.40;;;;;;;;;;5000464;28;24383;-58
2021/11/02 15:22:11;;;;;;;3.63;3.33;;;;;;;;;;4999756;28;25449;-59
2021/11/02 15:24:38;;;;;;;4.40;3.50;;;;;;;;;;4998652;28;24751;-59
2021/11/02 15:27:11;;;;;;;3.63;3.33;;;;;;;;;;4998625;28;24407;-59
2021/11/02 15:29:39;;;;;;;3.70;3.40;;;;;;;;;;4997604;28;24483;-59
2021/11/02 15:32:05;;;;;;;3.42;3.05;;;;;;;;;;5001961;28;24425;-58
2021/11/02 15:34:44;;;;;;;5.20;3.20;;;;;;;;;;5003115;28;24399;-58
2021/11/02 15:37:11;;;;;;;3.90;3.60;;;;;;;;;;5002853;28;24751;-59
2021/11/02 15:39:36;;;;;;;3.83;3.35;;;;;;;;;;4999003;28;24458;-59
2021/11/02 15:42:03;;;;;;;3.60;3.30;;;;;;;;;;4993677;28;25231;-59
2021/11/02 15:44:28;;;;;;;3.50;3.20;;;;;;;;;;5000930;28;25001;-58
2021/11/02 15:46:54;;;;;;;4.45;3.63;;;;;;;;;;5000551;28;24998;-59
2021/11/02 15:49:20;;;;;;;4.90;4.40;;;;;;;;;;5002330;28;24770;-60
2021/11/02 15:51:53;;;;;;;4.80;3.97;;;;;;;;;;4996482;28;24516;-59
2021/11/02 15:54:19;;;;;;;4.15;3.83;;;;;;;;;;4996828;28;24404;-60
2021/11/02 15:56:45;;;;;;;4.80;4.30;;;;;;;;;;4998672;28;25085;-59
2021/11/02 15:59:10;;;;;;;4.10;3.70;;;;;;;;;;5002745;28;24565;-59
2021/11/02 16:01:40;;;;;;;4.05;3.65;;;;;;;;;;5000072;28;24778;-59
2021/11/02 16:04:07;;;;;;;4.53;4.13;;;;;;;;;;5001746;28;24501;-59
2021/11/02 16:06:32;;;;;;;4.20;3.80;;;;;;;;;;5000987;28;24381;-58
2021/11/02 16:08:58;;;;;;;3.80;3.50;;;;;;;;;;4996222;28;24459;-59
2021/11/02 16:11:23;;;;;;;3.80;3.50;;;;;;;;;;4998799;28;24468;-59
2021/11/02 16:13:48;;;;;;;3.90;3.50;;;;;;;;;;4997907;28;24503;-58
2021/11/02 16:16:14;;;;;;;6.07;4.60;;;;;;;;;;5002086;28;24484;-58
2021/11/02 16:18:40;;;;;;;4.90;3.93;;;;;;;;;;5000078;28;24393;-59
2021/11/02 16:21:07;;;;;;;4.43;4.03;;;;;;;;;;5001681;28;24400;-60
2021/11/02 16:23:37;;;;;;;4.45;4.05;;;;;;;;;;4999832;28;24977;-59
2021/11/02 16:26:11;;;;;;;4.60;4.20;;;;;;;;;;4996386;28;24420;-59
2021/11/02 16:28:37;;;;;;;6.20;5.60;;;;;;;;;;4996388;28;24407;-58
2021/11/02 16:31:04;;;;;;;6.20;5.60;;;;;;;;;;5001477;28;24385;-59
2021/11/02 16:33:30;;;;;;;6.03;5.13;;;;;;;;;;5002036;28;24443;-58
2021/11/02 16:35:55;;;;;;;5.80;5.20;;;;;;;;;;5001408;28;25100;-58
2021/11/02 16:38:20;;;;;;;5.70;4.70;;;;;;;;;;5002071;28;24405;-58
2021/11/02 16:40:47;;;;;;;5.13;4.63;;;;;;;;;;4986611;28;24401;-59
2021/11/02 16:43:12;;;;;;;4.90;4.40;;;;;;;;;;4984155;28;24523;-59
2021/11/02 16:45:37;;;;;;;4.80;4.40;;;;;;;;;;4998998;28;24408;-59
2021/11/02 16:48:04;;;;;;;6.10;5.00;;;;;;;;;;5005535;28;25172;-59
2021/11/02 16:50:31;;;;;;;5.20;4.70;;;;;;;;;;5004172;28;24381;-59
2021/11/02 16:53:25;;;;;;;5.07;4.60;;;;;;;;;;4999764;28;24400;-59
2021/11/02 16:55:51;;;;;;;5.30;4.80;;;;;;;;;;4988405;28;24483;-59
2021/11/02 16:58:19;;;;;;;6.73;5.23;;;;;;;;;;5002743;28;24447;-60
2021/11/02 17:00:45;;;;;;;5.63;5.13;;;;;;;;;;5003812;28;24447;-60
2021/11/02 17:03:13;;;;;;;5.00;4.60;;;;;;;;;;5005341;28;24830;-59
2021/11/02 17:05:39;;;;;;;5.13;4.63;;;;;;;;;;4999425;28;24490;-60
2021/11/02 17:08:09;;;;;;;5.70;5.20;;;;;;;;;;5001576;28;24968;-59
2021/11/02 17:10:37;;;;;;;5.10;4.60;;;;;;;;;;5005488;28;24853;-60
2021/11/02 17:13:16;;;;;;;6.80;5.10;;;;;;;;;;5002959;28;24482;-60
2021/11/02 17:15:43;;;;;;;5.65;5.15;;;;;;;;;;4999697;28;24403;-60
2021/11/02 17:18:09;;;;;;;5.45;4.95;;;;;;;;;;5000876;28;24576;-59
2021/11/02 17:20:34;;;;;;;5.40;4.90;;;;;;;;;;5005107;28;24942;-59
2021/11/02 17:23:00;;;;;;;5.03;4.53;;;;;;;;;;5002522;28;24452;-59
2021/11/02 17:25:26;;;;;;;4.47;4.10;;;;;;;;;;5004947;28;24389;-59
2021/11/02 17:27:52;;;;;;;4.78;4.35;;;;;;;;;;4999728;28;24853;-59
2021/11/02 17:30:17;;;;;;;5.03;4.40;;;;;;;;;;4994731;28;25000;-60
2021/11/02 17:32:42;;;;;;;5.85;5.30;;;;;;;;;;4998110;28;24416;-59
2021/11/02 17:35:08;;;;;;;5.10;4.60;;;;;;;;;;4996632;28;24413;-59
2021/11/02 17:37:34;;;;;;;4.90;4.40;;;;;;;;;;4999809;28;24562;-60
2021/11/02 17:39:59;;;;;;;4.80;4.30;;;;;;;;;;4997838;28;24494;-60
2021/11/02 17:42:24;;;;;;;5.33;4.70;;;;;;;;;;4999050;28;25303;-60
2021/11/02 17:44:50;;;;;;;5.43;4.60;;;;;;;;;;5002569;28;24413;-60
2021/11/02 17:47:15;;;;;;;4.80;4.40;;;;;;;;;;5003509;28;24417;-59
2021/11/02 17:49:40;;;;;;;5.50;5.00;;;;;;;;;;5002689;28;24974;-59
2021/11/02 17:52:06;;;;;;;5.50;5.00;;;;;;;;;;5002139;28;24669;-59
2021/11/02 17:54:32;;;;;;;6.35;5.75;;;;;;;;;;5003848;28;24510;-59
2021/11/02 17:56:57;;;;;;;6.00;5.10;;;;;;;;;;4992683;28;24452;-59
2021/11/02 17:59:22;;;;;;;5.67;5.17;;;;;;;;;;4995204;28;25020;-60
2021/11/02 18:01:48;;;;;;;5.70;5.17;;;;;;;;;;5001232;28;24417;-60
2021/11/02 18:04:13;;;;;;;5.60;5.10;;;;;;;;;;4994574;28;24858;-60
2021/11/02 18:06:39;;;;;;;5.60;5.03;;;;;;;;;;5000413;28;24467;-59
2021/11/02 18:09:04;;;;;;;7.10;5.50;;;;;;;;;;5002898;28;24738;-60
2021/11/02 18:11:29;;;;;;;7.37;5.70;;;;;;;;;;5000477;28;24958;-59
2021/11/02 18:13:55;;;;;;;6.97;6.37;;;;;;;;;;4994962;28;24547;-58
2021/11/02 18:16:20;;;;;;;8.07;7.27;;;;;;;;;;5005193;28;24523;-59
2021/11/02 18:18:47;;;;;;;7.70;7.00;;;;;;;;;;4996390;28;24835;-60
2021/11/02 18:21:14;;;;;;;8.10;7.30;;;;;;;;;;4999206;28;25228;-61
2021/11/02 18:23:42;;;;;;;8.57;7.78;;;;;;;;;;5000901;28;24440;-60
2021/11/02 18:26:08;;;;;;;8.17;7.37;;;;;;;;;;4996982;28;24520;-60
2021/11/02 18:28:33;;;;;;;9.47;7.07;;;;;;;;;;4997751;28;25183;-60
2021/11/02 18:30:59;;;;;;;7.67;6.90;;;;;;;;;;4994557;28;25492;-60
2021/11/02 18:33:25;;;;;;;7.75;6.95;;;;;;;;;;4998005;28;24577;-58
2021/11/02 18:35:50;;;;;;;7.90;7.20;;;;;;;;;;4998682;28;24417;-61
2021/11/02 18:38:15;;;;;;;7.43;6.73;;;;;;;;;;4997127;28;24824;-59
2021/11/02 18:40:41;;;;;;;7.10;6.60;;;;;;;;;;4997506;28;24401;-59
2021/11/02 18:43:06;;;;;;;8.60;7.30;;;;;;;;;;4993460;28;24982;-60
2021/11/02 18:45:31;;;;;;;8.00;7.20;;;;;;;;;;4999967;28;24512;-60
2021/11/02 18:47:57;;;;;;;8.57;7.67;;;;;;;;;;4995983;28;24724;-60
2021/11/02 18:50:22;;;;;;;8.23;7.43;;;;;;;;;;4998274;28;24935;-60
2021/11/02 18:52:48;;;;;;;7.67;6.97;;;;;;;;;;4993171;28;24903;-60
2021/11/02 18:55:14;;;;;;;7.60;6.90;;;;;;;;;;4985674;28;24420;-61
2021/11/02 18:57:40;;;;;;;7.20;6.50;;;;;;;;;;4990721;28;24451;-60
2021/11/02 19:00:06;;;;;;;6.60;6.10;;;;;;;;;;4996722;28;24428;-61
2021/11/02 19:02:32;;;;;;;6.88;6.28;;;;;;;;;;4991972;28;24435;-60
2021/11/02 19:04:57;;;;;;;7.10;6.40;;;;;;;;;;4991988;28;24428;-60
2021/11/02 19:07:22;;;;;;;7.10;6.43;;;;;;;;;;4995357;28;24424;-60
2021/11/02 19:09:47;;;;;;;7.50;6.80;;;;;;;;;;5000569;28;24411;-60
2021/11/02 19:12:15;;;;;;;8.23;7.43;;;;;;;;;;4997940;28;24970;-59
2021/11/02 19:14:40;;;;;;;8.70;7.87;;;;;;;;;;4995604;28;24417;-60
2021/11/02 19:17:05;;;;;;;8.60;7.80;;;;;;;;;;5008762;28;24481;-61